Hydro, Oklahoma
Current Conditions -  °F | °C
As of 8:35 AM on Tuesday 27 Jan 2015 (Local Time) from KOJA Reporting Station
Clear Clear  
Wind Chill: 37°   Ceiling: Unl
Heat Index: 37°   Visibility: 10mi
Dew Point: 34°   Wind: 0mph
Humidity: 87%   Direction: NA
Pressure: 30.18"   Gusts: NA
Location:  35.55°N, 98.58°W
Report Text: KOJA 271435Z AUTO 00000KT 10SM CLR 03/01 A3018 RMK AO2
Loading
Personal Weather Stations






























Interactive Weather Map New forecast layout! Learn more

10-Day Weather Forecast

Advertisements
Track Severe Weather on mobile